| time (UTC) | temp F | wind direction | speed knots | gust knots | rain 1hr in | rain 24hr in | rain mn in | humidity % | barometer mb |
| 20260906144535 | 79 | 34 | 0.0 | 2.6 | 0.00 | 0.00 | 0.00 | 78 | 1016.7 |
| 20260906143031 | 78 | 122 | 0.0 | 5.2 | 0.00 | 0.00 | 0.00 | 80 | 1016.7 |
| 20260906141529 | 78 | 68 | 0.0 | 1.7 | 0.00 | 0.00 | 0.00 | 81 | 1016.6 |
| 20260906140042 | 76 | 348 | 0.0 | 2.6 | 0.00 | 0.00 | 0.00 | 85 | 1016.5 |
| 20260906134531 | 75 | 284 | 0.0 | 1.7 | 0.00 | 0.00 | 0.00 | 85 | 1016.4 |
| 20260906133003 | 74 | 269 | 0.0 | 1.7 | 0.00 | 0.00 | 0.00 | 87 | 1016.4 |
| 20260906131508 | 74 | 276 | 0.0 | 0.0 | 0.00 | 0.00 | 0.00 | 88 | 1016.6 |
| 20260906130015 | 74 | 220 | 0.0 | 0.9 | 0.00 | 0.00 | 0.00 | 89 | 1016.5 |
| 20260906124517 | 74 | 29 | 0.0 | 0.0 | 0.00 | 0.00 | 0.00 | 90 | 1016.3 |
| 20260906123017 | 73 | 250 | 0.0 | 0.0 | 0.00 | 0.00 | 0.00 | 90 | 1016.1 |
| 20260906121505 | 73 | 276 | 0.0 | 0.0 | 0.00 | 0.00 | 0.00 | 90 | 1016.0 |
| 20260906120004 | 74 | 219 | 0.0 | 0.0 | 0.00 | 0.00 | 0.00 | 90 | 1015.7 |
| 20260906114508 | 74 | 205 | 0.0 | 0.0 | 0.00 | 0.00 | 0.00 | 90 | 1015.6 |
| 20260906113013 | 74 | 255 | 0.0 | 0.0 | 0.00 | 0.00 | 0.00 | 90 | 1015.5 |
| 20260906111522 | 75 | 255 | 0.0 | 0.0 | 0.00 | 0.00 | 0.00 | 89 | 1015.5 |
| 20260906110010 | 75 | 255 | 0.0 | 0.0 | 0.00 | 0.00 | 0.00 | 88 | 1015.5 |
| 20260906104512 | 75 | 255 | 0.0 | 0.0 | 0.00 | 0.00 | 0.00 | 88 | 1015.4 |
| 20260906103009 | 76 | 255 | 0.0 | 0.0 | 0.00 | 0.00 | 0.00 | 87 | 1015.2 |
| 20260906101516 | 76 | 242 | 0.0 | 0.0 | 0.00 | 0.00 | 0.00 | 86 | 1015.0 |
| 20260906100023 | 77 | 242 | 0.0 | 0.0 | 0.00 | 0.00 | 0.00 | 86 | 1015.0 |
| 20260906094506 | 77 | 242 | 0.0 | 0.0 | 0.00 | 0.00 | 0.00 | 85 | 1015.0 |
| 20260906093010 | 78 | 207 | 0.0 | 0.0 | 0.00 | 0.00 | 0.00 | 84 | 1015.0 |
| 20260906091524 | 78 | 207 | 0.0 | 0.0 | 0.00 | 0.00 | 0.00 | 84 | 1014.7 |
| 20260906090017 | 78 | 215 | 0.0 | 0.0 | 0.00 | 0.00 | 0.00 | 86 | 1014.6 |
| 20260906084527 | 79 | 244 | 0.0 | 0.0 | 0.00 | 0.00 | 0.00 | 85 | 1014.4 |
| 20260906083009 | 79 | 266 | 0.0 | 0.0 | 0.00 | 0.00 | 0.00 | 86 | 1014.3 |
| 20260906081528 | 79 | 266 | 0.0 | 0.0 | 0.00 | 0.00 | 0.00 | 86 | 1014.4 |
| 20260906080014 | 79 | 266 | 0.0 | 0.0 | 0.00 | 0.00 | 0.00 | 85 | 1014.4 |
| 20260906074523 | 80 | 117 | 0.0 | 0.0 | 0.00 | 0.00 | 0.00 | 84 | 1014.4 |
| 20260906073027 | 80 | 117 | 0.0 | 0.0 | 0.00 | 0.00 | 0.00 | 83 | 1014.3 |
| 20260906071505 | 81 | 117 | 0.0 | 0.0 | 0.00 | 0.00 | 0.00 | 81 | 1014.4 |
| 20260906070013 | 81 | 117 | 0.0 | 0.0 | 0.00 | 0.00 | 0.00 | 80 | 1014.4 |
| 20260906064518 | 81 | 61 | 0.0 | 0.0 | 0.00 | 0.00 | 0.00 | 80 | 1014.5 |
| 20260906063022 | 81 | 223 | 0.0 | 0.0 | 0.00 | 0.00 | 0.00 | 81 | 1014.7 |
| 20260906061528 | 81 | 223 | 0.0 | 0.0 | 0.00 | 0.00 | 0.00 | 81 | 1014.6 |
| 20260906060009 | 80 | 224 | 0.0 | 0.0 | 0.00 | 0.00 | 0.00 | 82 | 1014.6 |
| 20260906054514 | 80 | 224 | 0.0 | 0.0 | 0.00 | 0.00 | 0.00 | 83 | 1014.8 |
| 20260906053026 | 80 | 223 | 0.0 | 0.0 | 0.00 | 0.00 | 0.00 | 81 | 1014.8 |
| 20260906051531 | 81 | 224 | 0.0 | 0.0 | 0.00 | 0.00 | 0.00 | 80 | 1014.6 |
| 20260906050052 | 81 | 224 | 0.0 | 0.0 | 0.00 | 0.00 | 0.00 | 80 | 1014.7 |
| 20260906044510 | 81 | 224 | 0.0 | 0.0 | 0.00 | 0.00 | 0.00 | 79 | 1014.6 |
| 20260906043016 | 82 | 223 | 0.0 | 0.0 | 0.00 | 0.00 | 0.00 | 78 | 1014.4 |
| 20260906041523 | 82 | 224 | 0.0 | 0.0 | 0.00 | 0.00 | 0.00 | 78 | 1014.4 |
| 20260906040026 | 82 | 224 | 0.0 | 0.0 | 0.00 | 0.00 | 0.00 | 76 | 1014.3 |
| 20260906034539 | 83 | 224 | 0.0 | 0.0 | 0.00 | 0.00 | 0.00 | 76 | 1014.2 |
| 20260906033019 | 83 | 223 | 0.0 | 0.0 | 0.00 | 0.00 | 0.00 | 75 | 1014.2 |
| 20260906031520 | 83 | 223 | 0.0 | 0.0 | 0.00 | 0.00 | 0.00 | 75 | 1013.8 |
| 20260906030024 | 83 | 224 | 0.0 | 0.0 | 0.00 | 0.00 | 0.00 | 74 | 1013.7 |
| 20260906024529 | 83 | 223 | 0.0 | 0.0 | 0.00 | 0.00 | 0.00 | 73 | 1013.7 |
| 20260906023035 | 84 | 224 | 0.0 | 0.0 | 0.00 | 0.00 | 0.00 | 71 | 1013.4 |
| 20260906021517 | 84 | 223 | 0.0 | 0.0 | 0.00 | 0.00 | 0.00 | 70 | 1013.2 |
| 20260906020022 | 85 | 224 | 0.0 | 0.0 | 0.00 | 0.00 | 0.00 | 68 | 1013.1 |
| 20260906014531 | 85 | 223 | 0.0 | 0.0 | 0.00 | 0.00 | 0.00 | 67 | 1012.9 |
| 20260906013009 | 86 | 223 | 0.0 | 0.0 | 0.00 | 0.00 | 0.00 | 65 | 1012.8 |
| 20260906011508 | 86 | 223 | 0.0 | 0.0 | 0.00 | 0.00 | 0.00 | 64 | 1012.6 |
| 20260906010010 | 87 | 223 | 0.0 | 0.0 | 0.00 | 0.00 | 0.00 | 63 | 1012.5 |
| 20260906004503 | 89 | 223 | 0.0 | 0.0 | 0.00 | 0.00 | 0.00 | 60 | 1012.4 |
| 20260906003005 | 90 | 223 | 0.0 | 0.0 | 0.00 | 0.00 | 0.00 | 58 | 1012.3 |
| 20260906001507 | 92 | 223 | 0.0 | 0.0 | 0.00 | 0.00 | 0.00 | 55 | 1012.2 |
| 20260906000013 | 93 | 223 | 0.0 | 0.0 | 0.00 | 0.00 | 0.00 | 55 | 1012.3 |
| 20260905234513 | 94 | 223 | 0.0 | 0.0 | 0.00 | 0.00 | 0.00 | 55 | 1012.3 |
| 20260905233003 | 94 | 223 | 0.0 | 0.0 | 0.00 | 0.00 | 0.00 | 55 | 1012.4 |
| 20260905231505 | 95 | 259 | 0.0 | 0.0 | 0.00 | 0.00 | 0.00 | 52 | 1012.5 |
| 20260905230008 | 95 | 240 | 0.0 | 0.0 | 0.00 | 0.00 | 0.00 | 50 | 1012.6 |
| 20260905224516 | 97 | 240 | 0.0 | 0.0 | 0.00 | 0.00 | 0.00 | 45 | 1012.4 |
| 20260905223016 | 98 | 246 | 0.0 | 0.9 | 0.00 | 0.00 | 0.00 | 44 | 1012.2 |
| 20260905221507 | 98 | 238 | 0.0 | 0.9 | 0.00 | 0.00 | 0.00 | 45 | 1012.3 |
| 20260905220008 | 97 | 272 | 0.0 | 0.0 | 0.00 | 0.00 | 0.00 | 49 | 1012.3 |
| 20260905214512 | 98 | 262 | 0.0 | 0.0 | 0.00 | 0.00 | 0.00 | 46 | 1012.5 |
| 20260905213022 | 98 | 264 | 0.0 | 0.0 | 0.00 | 0.00 | 0.00 | 43 | 1012.3 |
| 20260905211516 | 97 | 284 | 0.0 | 1.7 | 0.00 | 0.00 | 0.00 | 44 | 1012.4 |
| 20260905210006 | 97 | 247 | 0.0 | 3.5 | 0.00 | 0.00 | 0.00 | 50 | 1012.7 |
| 20260905204510 | 97 | 236 | 0.0 | 2.6 | 0.00 | 0.00 | 0.00 | 47 | 1012.7 |
| 20260905203016 | 95 | 134 | 0.9 | 3.5 | 0.00 | 0.00 | 0.00 | 48 | 1012.9 |
| 20260905201520 | 93 | 271 | 0.9 | 3.5 | 0.00 | 0.00 | 0.00 | 49 | 1013.1 |
| 20260905200029 | 96 | 270 | 1.7 | 5.2 | 0.00 | 0.00 | 0.00 | 49 | 1013.2 |
| 20260905194509 | 101 | 236 | 0.0 | 2.6 | 0.00 | 0.00 | 0.00 | 39 | 1013.2 |
| 20260905193020 | 103 | 263 | 0.0 | 1.7 | 0.00 | 0.00 | 0.00 | 40 | 1013.3 |
| 20260905191513 | 102 | 240 | 0.0 | 2.6 | 0.00 | 0.00 | 0.00 | 39 | 1013.5 |
| 20260905190021 | 100 | 304 | 0.9 | 2.6 | 0.00 | 0.00 | 0.00 | 44 | 1013.5 |
| 20260905184532 | 100 | 232 | 0.0 | 3.5 | 0.00 | 0.00 | 0.00 | 43 | 1013.6 |
| 20260905183028 | 99 | 278 | 0.0 | 1.7 | 0.00 | 0.00 | 0.00 | 45 | 1013.8 |
| 20260905181524 | 99 | 261 | 0.9 | 3.5 | 0.00 | 0.00 | 0.00 | 44 | 1013.9 |
| 20260905180024 | 99 | 275 | 0.0 | 3.5 | 0.00 | 0.00 | 0.00 | 48 | 1014.1 |
| 20260905174532 | 98 | 228 | 0.9 | 3.5 | 0.00 | 0.00 | 0.00 | 49 | 1014.2 |
| 20260905173026 | 97 | 241 | 0.9 | 2.6 | 0.00 | 0.00 | 0.00 | 49 | 1014.3 |
| 20260905171523 | 97 | 263 | 0.0 | 2.6 | 0.00 | 0.00 | 0.00 | 53 | 1014.5 |
| 20260905170024 | 97 | 236 | 0.0 | 1.7 | 0.00 | 0.00 | 0.00 | 50 | 1014.7 |
| 20260905164526 | 96 | 261 | 0.0 | 1.7 | 0.00 | 0.00 | 0.00 | 50 | 1014.8 |
| 20260905163023 | 94 | 275 | 0.0 | 1.7 | 0.00 | 0.00 | 0.00 | 54 | 1015.0 |
| 20260905161528 | 92 | 271 | 0.0 | 3.5 | 0.00 | 0.00 | 0.00 | 59 | 1015.0 |
| 20260905160042 | 91 | 243 | 0.0 | 3.5 | 0.00 | 0.00 | 0.00 | 59 | 1015.1 |
| 20260905154527 | 90 | 301 | 0.9 | 2.6 | 0.00 | 0.00 | 0.00 | 61 | 1015.0 |
| 20260905153021 | 89 | 229 | 0.9 | 3.5 | 0.00 | 0.00 | 0.00 | 61 | 1015.1 |
| 20260905151525 | 88 | 297 | 0.9 | 4.3 | 0.00 | 0.00 | 0.00 | 62 | 1015.1 |
| 20260905150004 | 87 | 269 | 1.7 | 3.5 | 0.00 | 0.00 | 0.00 | 63 | 1015.1 |